Cornish, Utah
Current Conditions -  °F | °C
As of 9:51 PM on Friday 24 Oct 2014 (Local Time) from KLGU Reporting Station
Clear Clear  
Wind Chill: 47°   Ceiling: Unl
Heat Index: 47°   Visibility: 10mi
Dew Point: 35°   Wind: 0mph
Humidity: 63%   Direction: NA
Pressure: 30.11"   Gusts: NA
Location:  41.98°N, 111.95°W
Report Text: KLGU 250351Z AUTO 00000KT 10SM CLR 08/02 A3011 RMK AO2 SLP183 T00830017 TSNO
Loading
Personal Weather Stations






























Interactive Weather Map
Tropical Storm Tracking
New forecast layout! Learn more

10-Day Weather Forecast

Advertisements
Track Severe Weather on mobile